createdAt,value
2022-11-16T08:54:52.759Z,62.30
2022-11-16T09:09:57.474Z,63.30
2022-11-16T09:25:02.063Z,59.20
2022-11-16T09:40:08.179Z,57.80
2022-11-16T09:55:25.629Z,57.20
2022-11-16T10:10:37.993Z,56.60
2022-11-16T10:25:45.726Z,55.90
2022-11-16T10:40:55.076Z,55.50
2022-11-16T10:56:14.066Z,55.20
2022-11-16T11:11:41.237Z,55.20
2022-11-16T11:26:52.249Z,55.10
2022-11-16T11:42:06.014Z,55.00
2022-11-16T11:57:15.591Z,54.90
2022-11-16T12:12:33.397Z,54.80
2022-11-16T12:27:44.590Z,54.80
2022-11-16T12:42:54.462Z,54.70
2022-11-16T12:58:07.776Z,55.10
2022-11-16T13:28:51.691Z,54.80
2022-11-16T13:43:56.648Z,55.00
2022-11-16T13:59:01.222Z,55.00
2022-11-16T14:14:07.595Z,54.50
2022-11-16T14:29:36.564Z,54.30
2022-11-16T15:25:28.670Z,55.00
2022-11-16T15:40:34.890Z,58.00
2022-11-16T15:55:41.485Z,55.70
2022-11-16T16:10:46.150Z,54.50
2022-11-16T16:25:50.947Z,54.60
2022-11-16T16:41:01.783Z,54.90
2022-11-16T16:56:07.458Z,55.50
2022-11-16T17:11:12.334Z,55.90
2022-11-16T17:26:16.989Z,56.40
2022-11-16T17:41:22.769Z,55.40
2022-11-16T17:56:28.803Z,55.10
2022-11-16T18:11:33.357Z,54.80
2022-11-16T18:26:38.604Z,54.60
2022-11-16T18:41:50.146Z,54.30
2022-11-16T18:56:59.040Z,53.80
2022-11-16T19:12:03.610Z,53.60
2022-11-16T19:27:08.193Z,53.50
2022-11-16T19:42:12.868Z,53.50
2022-11-16T19:57:20.494Z,53.30
2022-11-16T20:12:25.086Z,53.10
